Time;durP1;ratioP1;P1;durP2;ratioP2;P2;SDS_P1;SDS_P2;PMS_P1;PMS_P2;Temp;Humidity;BMP_temperature;BMP_pressure;BME280_temperature;BME280_humidity;BME280_pressure;Samples;Min_cycle;Max_cycle;Signal;HPM_P1;HPM_P2
2021/07/29 00:00:13;;;;;;;3.78;3.42;;;;;;;;;;2085180;28;20180;-58
2021/07/29 00:01:13;;;;;;;5.28;3.60;;;;;;;;;;2084035;28;20173;-58
2021/07/29 00:02:13;;;;;;;4.90;3.90;;;;;;;;;;2084446;28;20204;-58
2021/07/29 00:03:13;;;;;;;4.55;3.85;;;;;;;;;;2084195;28;20196;-57
2021/07/29 00:04:14;;;;;;;4.07;3.78;;;;;;;;;;2086928;28;20614;-55
2021/07/29 00:05:14;;;;;;;5.65;3.95;;;;;;;;;;2085840;28;20203;-52
2021/07/29 00:06:15;;;;;;;4.05;3.65;;;;;;;;;;2084694;28;20183;-57
2021/07/29 00:07:15;;;;;;;4.63;3.63;;;;;;;;;;2084971;28;20648;-57
2021/07/29 00:08:18;;;;;;;4.35;4.03;;;;;;;;;;2087810;28;20169;-54
2021/07/29 00:09:19;;;;;;;6.75;3.65;;;;;;;;;;2088453;28;20172;-57
2021/07/29 00:10:19;;;;;;;3.85;3.55;;;;;;;;;;2085533;28;20172;-58
2021/07/29 00:11:20;;;;;;;3.83;3.50;;;;;;;;;;2082635;28;20200;-55
2021/07/29 00:12:20;;;;;;;5.57;4.00;;;;;;;;;;2086036;28;20214;-58
2021/07/29 00:13:20;;;;;;;4.38;3.80;;;;;;;;;;2090481;28;20236;-57
2021/07/29 00:14:20;;;;;;;4.55;3.90;;;;;;;;;;2085236;28;20245;-59
2021/07/29 00:15:21;;;;;;;4.05;3.75;;;;;;;;;;2085380;28;20662;-58
2021/07/29 00:16:23;;;;;;;3.85;3.55;;;;;;;;;;2080884;28;20173;-57
2021/07/29 00:19:01;;;;;;;3.95;3.60;;;;;;;;;;2085993;28;20195;-59
2021/07/29 00:19:05;;;;;;;3.70;3.40;;;;;;;;;;2083352;28;20270;-51
2021/07/29 00:20:06;;;;;;;3.97;3.67;;;;;;;;;;2083934;28;20187;-59
2021/07/29 00:21:06;;;;;;;4.50;4.03;;;;;;;;;;2085995;28;20168;-59
2021/07/29 00:22:07;;;;;;;4.10;3.70;;;;;;;;;;2086415;28;20195;-59
2021/07/29 00:23:07;;;;;;;3.53;3.22;;;;;;;;;;2091751;28;20663;-56
2021/07/29 00:24:07;;;;;;;4.65;3.88;;;;;;;;;;2089561;28;20191;-56
2021/07/29 00:25:12;;;;;;;4.35;4.05;;;;;;;;;;2087611;28;20199;-56
2021/07/29 00:26:12;;;;;;;4.15;3.85;;;;;;;;;;2086180;28;20160;-53
2021/07/29 00:27:13;;;;;;;3.85;3.65;;;;;;;;;;2087771;28;20164;-55
2021/07/29 00:28:13;;;;;;;4.70;4.30;;;;;;;;;;2089437;28;20183;-56
2021/07/29 00:29:13;;;;;;;4.70;4.32;;;;;;;;;;2082271;28;20552;-55
2021/07/29 00:30:14;;;;;;;4.72;4.10;;;;;;;;;;2081754;28;20176;-54
2021/07/29 00:31:14;;;;;;;4.65;4.20;;;;;;;;;;2085068;28;20168;-52
2021/07/29 00:32:14;;;;;;;4.43;4.03;;;;;;;;;;2086011;28;20267;-53
2021/07/29 00:33:15;;;;;;;4.32;3.92;;;;;;;;;;2083233;28;20230;-54
2021/07/29 00:34:15;;;;;;;4.78;4.32;;;;;;;;;;2085219;28;20185;-55
2021/07/29 00:35:15;;;;;;;4.57;4.07;;;;;;;;;;2083154;28;20176;-56
2021/07/29 00:36:19;;;;;;;4.65;4.18;;;;;;;;;;2088876;28;20176;-54
2021/07/29 00:37:20;;;;;;;4.78;4.35;;;;;;;;;;2086167;28;20194;-52
2021/07/29 00:38:20;;;;;;;4.32;4.03;;;;;;;;;;2087824;28;20178;-57
2021/07/29 00:39:20;;;;;;;4.78;4.35;;;;;;;;;;2083843;28;20339;-54
2021/07/29 00:40:21;;;;;;;4.63;4.15;;;;;;;;;;2080498;28;20255;-55
2021/07/29 00:41:21;;;;;;;4.60;4.28;;;;;;;;;;2081566;28;20164;-54
2021/07/29 00:42:21;;;;;;;4.57;4.25;;;;;;;;;;2088140;28;20210;-53
2021/07/29 00:43:21;;;;;;;5.13;4.65;;;;;;;;;;2089315;28;20303;-52
2021/07/29 00:44:22;;;;;;;7.35;4.78;;;;;;;;;;2085384;28;20579;-54
2021/07/29 00:45:22;;;;;;;4.95;4.50;;;;;;;;;;2087212;28;20266;-55
2021/07/29 00:46:22;;;;;;;4.78;4.00;;;;;;;;;;2084295;28;20598;-55
2021/07/29 00:47:23;;;;;;;5.43;4.93;;;;;;;;;;2083770;28;20176;-58
2021/07/29 00:48:23;;;;;;;4.65;4.25;;;;;;;;;;2080927;28;20168;-58
2021/07/29 00:49:23;;;;;;;6.38;4.43;;;;;;;;;;2087064;28;20159;-57
2021/07/29 00:50:24;;;;;;;4.82;4.43;;;;;;;;;;2086700;28;20551;-56
2021/07/29 00:51:25;;;;;;;7.05;4.65;;;;;;;;;;2086145;28;20183;-56
2021/07/29 00:52:25;;;;;;;5.72;4.68;;;;;;;;;;2084029;28;20192;-53
2021/07/29 00:53:26;;;;;;;5.50;4.57;;;;;;;;;;2086161;28;20600;-56
2021/07/29 00:54:29;;;;;;;6.32;5.18;;;;;;;;;;2085586;28;20848;-58
2021/07/29 00:55:30;;;;;;;7.85;5.15;;;;;;;;;;2084704;28;20165;-54
2021/07/29 00:56:30;;;;;;;6.18;5.28;;;;;;;;;;2090644;28;20342;-54
2021/07/29 00:57:31;;;;;;;5.90;4.65;;;;;;;;;;2088127;28;20199;-51
2021/07/29 00:58:31;;;;;;;5.47;5.07;;;;;;;;;;2089738;28;20237;-51
2021/07/29 00:59:31;;;;;;;5.80;5.30;;;;;;;;;;2088633;28;20561;-55
2021/07/29 01:00:31;;;;;;;5.25;4.85;;;;;;;;;;2090111;28;20168;-55
2021/07/29 01:01:32;;;;;;;5.10;4.70;;;;;;;;;;2086454;28;20180;-51
2021/07/29 01:02:32;;;;;;;5.65;5.10;;;;;;;;;;2086895;28;20195;-52
2021/07/29 01:03:32;;;;;;;6.05;4.93;;;;;;;;;;2090016;28;20226;-52
2021/07/29 01:04:33;;;;;;;7.22;5.40;;;;;;;;;;2087949;28;20255;-52
2021/07/29 01:05:33;;;;;;;5.18;4.78;;;;;;;;;;2087960;28;20171;-52
2021/07/29 01:06:33;;;;;;;5.65;5.15;;;;;;;;;;2088144;28;20163;-51
2021/07/29 01:07:33;;;;;;;6.25;5.10;;;;;;;;;;2088885;28;20659;-54
2021/07/29 01:08:54;;;;;;;5.63;5.20;;;;;;;;;;2088420;28;20183;-54
2021/07/29 01:09:54;;;;;;;5.28;4.78;;;;;;;;;;2088737;28;20167;-55
2021/07/29 01:10:54;;;;;;;6.07;5.47;;;;;;;;;;2086563;28;20297;-52
2021/07/29 01:11:54;;;;;;;5.45;4.97;;;;;;;;;;2085588;28;20172;-52
2021/07/29 01:12:55;;;;;;;8.70;5.35;;;;;;;;;;2085825;28;20176;-54
2021/07/29 01:13:55;;;;;;;5.75;5.00;;;;;;;;;;2088628;28;20160;-54
2021/07/29 01:14:55;;;;;;;5.53;5.13;;;;;;;;;;2087774;28;20176;-53
2021/07/29 01:15:55;;;;;;;6.85;5.05;;;;;;;;;;2088091;28;20198;-51
2021/07/29 01:16:56;;;;;;;5.47;4.88;;;;;;;;;;2087134;28;20164;-54
2021/07/29 01:18:00;;;;;;;5.38;4.97;;;;;;;;;;2085621;28;20624;-52
2021/07/29 01:19:01;;;;;;;5.95;5.35;;;;;;;;;;2088184;28;20643;-58
2021/07/29 01:20:02;;;;;;;5.68;5.03;;;;;;;;;;2087252;28;20170;-51
2021/07/29 01:21:02;;;;;;;5.10;4.68;;;;;;;;;;2084524;28;20168;-51
2021/07/29 01:22:03;;;;;;;5.82;5.32;;;;;;;;;;2085972;28;20192;-55
2021/07/29 01:23:03;;;;;;;4.93;4.53;;;;;;;;;;2083919;28;20243;-52
2021/07/29 01:24:03;;;;;;;7.13;5.55;;;;;;;;;;2088739;28;20163;-55
2021/07/29 01:25:04;;;;;;;7.90;4.82;;;;;;;;;;2087338;28;20231;-55
2021/07/29 01:26:05;;;;;;;5.55;5.03;;;;;;;;;;2086789;28;20195;-57
2021/07/29 01:27:05;;;;;;;5.75;5.18;;;;;;;;;;2085078;28;20199;-58
2021/07/29 01:28:05;;;;;;;6.60;5.13;;;;;;;;;;2089949;28;20183;-58
2021/07/29 01:29:05;;;;;;;5.47;4.95;;;;;;;;;;2088835;28;20164;-59
2021/07/29 01:30:06;;;;;;;5.53;4.80;;;;;;;;;;2086137;28;20199;-58
2021/07/29 01:31:06;;;;;;;5.50;4.80;;;;;;;;;;2085735;28;20169;-59
2021/07/29 01:32:06;;;;;;;5.28;4.88;;;;;;;;;;2087481;28;20188;-58
2021/07/29 01:33:07;;;;;;;5.57;5.03;;;;;;;;;;2085785;28;20950;-56
2021/07/29 01:34:07;;;;;;;6.50;5.13;;;;;;;;;;2087435;28;20211;-56
2021/07/29 01:35:11;;;;;;;5.43;4.97;;;;;;;;;;2086612;28;20210;-57
2021/07/29 01:36:11;;;;;;;5.57;4.90;;;;;;;;;;2087388;28;20177;-57
2021/07/29 01:37:11;;;;;;;5.63;4.95;;;;;;;;;;2087015;28;20263;-51
2021/07/29 01:38:11;;;;;;;5.35;4.80;;;;;;;;;;2089640;28;20180;-57
2021/07/29 01:39:12;;;;;;;5.43;4.95;;;;;;;;;;2088539;28;20193;-58
2021/07/29 01:40:13;;;;;;;5.10;4.47;;;;;;;;;;2086501;28;20160;-57
2021/07/29 01:41:13;;;;;;;8.40;4.90;;;;;;;;;;2082779;28;20188;-54
2021/07/29 01:42:13;;;;;;;6.07;4.63;;;;;;;;;;2086045;28;20195;-57
2021/07/29 01:43:14;;;;;;;5.00;4.60;;;;;;;;;;2085234;28;20286;-57
2021/07/29 01:44:14;;;;;;;4.72;4.43;;;;;;;;;;2086461;28;20176;-56
2021/07/29 01:45:14;;;;;;;4.47;4.07;;;;;;;;;;2088425;28;20221;-56
2021/07/29 01:46:14;;;;;;;5.70;5.20;;;;;;;;;;2087985;28;20264;-56
2021/07/29 01:47:15;;;;;;;5.38;4.93;;;;;;;;;;2085826;28;20170;-58
2021/07/29 01:48:15;;;;;;;5.25;4.85;;;;;;;;;;2087676;28;20172;-59
2021/07/29 01:49:21;;;;;;;8.18;4.60;;;;;;;;;;2086770;28;20210;-58
2021/07/29 01:50:22;;;;;;;5.20;4.60;;;;;;;;;;2086524;28;20222;-58
2021/07/29 01:51:23;;;;;;;5.78;4.82;;;;;;;;;;2085812;28;20179;-59
2021/07/29 01:52:23;;;;;;;5.40;4.90;;;;;;;;;;2086393;28;20274;-57
2021/07/29 01:53:23;;;;;;;5.65;4.95;;;;;;;;;;2087949;28;20176;-53
2021/07/29 01:54:24;;;;;;;6.07;5.13;;;;;;;;;;2084341;28;20184;-58
2021/07/29 01:55:24;;;;;;;5.53;5.03;;;;;;;;;;2086426;28;20176;-57
2021/07/29 01:56:24;;;;;;;4.88;4.47;;;;;;;;;;2087352;28;20236;-58
2021/07/29 01:57:24;;;;;;;6.25;5.13;;;;;;;;;;2087705;28;20234;-59
2021/07/29 01:58:25;;;;;;;5.65;5.00;;;;;;;;;;2086211;28;20179;-58
2021/07/29 01:59:25;;;;;;;5.60;5.10;;;;;;;;;;2096912;28;20253;-58
2021/07/29 02:00:25;;;;;;;6.45;5.15;;;;;;;;;;2083629;28;20202;-58
2021/07/29 02:01:26;;;;;;;5.10;4.70;;;;;;;;;;2086960;28;20660;-58
2021/07/29 02:02:26;;;;;;;5.10;4.63;;;;;;;;;;2088681;28;20226;-57
2021/07/29 02:03:27;;;;;;;6.57;5.40;;;;;;;;;;2086228;28;20560;-55
2021/07/29 02:04:27;;;;;;;6.63;4.97;;;;;;;;;;2086061;28;20262;-56
2021/07/29 02:05:27;;;;;;;5.40;4.90;;;;;;;;;;2088077;28;20172;-58
2021/07/29 02:06:27;;;;;;;5.80;4.82;;;;;;;;;;2086263;28;20215;-58
2021/07/29 02:07:28;;;;;;;6.30;5.15;;;;;;;;;;2086414;28;20168;-58
2021/07/29 02:08:28;;;;;;;6.65;4.90;;;;;;;;;;2084791;28;20204;-56
2021/07/29 02:09:29;;;;;;;5.60;4.60;;;;;;;;;;2085767;28;20180;-58
2021/07/29 02:10:29;;;;;;;5.20;4.80;;;;;;;;;;2085393;28;20160;-58
2021/07/29 02:11:31;;;;;;;8.20;5.07;;;;;;;;;;2085153;28;20179;-57
2021/07/29 02:12:33;;;;;;;5.85;5.18;;;;;;;;;;2102810;23;20725;-55
2021/07/29 02:13:33;;;;;;;7.35;4.82;;;;;;;;;;2075734;28;20200;-56
2021/07/29 02:14:34;;;;;;;5.47;5.03;;;;;;;;;;2078116;28;20185;-56
2021/07/29 02:15:34;;;;;;;5.93;4.88;;;;;;;;;;2076958;28;20176;-55
2021/07/29 02:16:34;;;;;;;9.88;4.65;;;;;;;;;;2075745;28;20181;-56
2021/07/29 02:17:34;;;;;;;4.63;4.32;;;;;;;;;;2078508;28;20191;-55
2021/07/29 02:18:35;;;;;;;4.63;4.15;;;;;;;;;;2076927;28;20247;-56
2021/07/29 02:19:35;;;;;;;5.03;4.63;;;;;;;;;;2077403;28;20176;-53
2021/07/29 02:20:35;;;;;;;7.25;5.10;;;;;;;;;;2075789;28;20279;-56
2021/07/29 02:21:36;;;;;;;6.28;4.65;;;;;;;;;;2069254;28;20181;-54
2021/07/29 02:22:36;;;;;;;6.72;4.90;;;;;;;;;;2076559;28;20679;-59
2021/07/29 02:23:37;;;;;;;4.65;4.25;;;;;;;;;;2073698;28;20254;-58
2021/07/29 02:24:37;;;;;;;5.05;4.40;;;;;;;;;;2074473;28;20591;-55
2021/07/29 02:25:37;;;;;;;4.40;4.10;;;;;;;;;;2074506;28;20176;-57
2021/07/29 02:26:38;;;;;;;4.88;4.47;;;;;;;;;;2076429;28;20248;-57
2021/07/29 02:27:38;;;;;;;6.28;4.78;;;;;;;;;;2073958;28;20852;-56
2021/07/29 02:28:38;;;;;;;4.60;4.20;;;;;;;;;;2073496;28;20231;-59
2021/07/29 02:29:39;;;;;;;5.50;4.95;;;;;;;;;;2073974;28;20169;-59
2021/07/29 02:30:39;;;;;;;5.43;4.55;;;;;;;;;;2075180;28;20288;-56
2021/07/29 02:31:39;;;;;;;4.57;4.18;;;;;;;;;;2074883;28;20177;-58
2021/07/29 02:32:40;;;;;;;4.10;3.80;;;;;;;;;;2075571;28;20169;-55
2021/07/29 02:33:40;;;;;;;5.68;4.18;;;;;;;;;;2069913;28;20205;-57
2021/07/29 02:34:40;;;;;;;5.20;4.65;;;;;;;;;;2074816;28;20199;-54
2021/07/29 02:35:41;;;;;;;4.57;4.20;;;;;;;;;;2071383;28;20665;-57
2021/07/29 02:36:41;;;;;;;5.93;4.35;;;;;;;;;;2071728;28;20176;-55
2021/07/29 02:37:41;;;;;;;4.75;4.35;;;;;;;;;;2067559;28;20279;-58
2021/07/29 02:38:41;;;;;;;5.80;4.22;;;;;;;;;;2072161;28;20216;-55
2021/07/29 02:39:42;;;;;;;6.35;4.10;;;;;;;;;;2072137;28;20173;-57
2021/07/29 02:40:42;;;;;;;4.55;4.15;;;;;;;;;;2064181;28;20193;-57
2021/07/29 02:41:43;;;;;;;4.72;4.32;;;;;;;;;;2065928;28;20646;-57
2021/07/29 02:42:43;;;;;;;4.70;4.30;;;;;;;;;;2072431;28;20743;-57
2021/07/29 02:43:43;;;;;;;5.00;4.60;;;;;;;;;;2071664;28;20673;-58
2021/07/29 02:44:44;;;;;;;4.40;3.90;;;;;;;;;;2072437;28;20193;-54
2021/07/29 02:45:45;;;;;;;4.75;4.25;;;;;;;;;;2071941;28;20187;-54
2021/07/29 02:46:45;;;;;;;5.95;4.03;;;;;;;;;;2070296;28;20721;-54
2021/07/29 02:47:45;;;;;;;4.93;4.50;;;;;;;;;;2072067;28;20184;-54
2021/07/29 02:48:46;;;;;;;4.68;4.28;;;;;;;;;;2071995;28;20188;-58
2021/07/29 02:49:46;;;;;;;4.95;4.28;;;;;;;;;;2064869;28;20738;-54
2021/07/29 02:50:53;;;;;;;4.82;4.30;;;;;;;;;;2071854;28;20176;-60
2021/07/29 02:51:53;;;;;;;6.55;4.43;;;;;;;;;;2066022;28;20186;-55
2021/07/29 02:52:53;;;;;;;4.47;4.18;;;;;;;;;;2071123;28;20184;-59
2021/07/29 02:53:53;;;;;;;4.38;4.07;;;;;;;;;;2070350;28;20176;-57
2021/07/29 02:54:54;;;;;;;5.50;4.05;;;;;;;;;;2066080;28;20174;-51
2021/07/29 02:55:57;;;;;;;4.07;3.67;;;;;;;;;;2072409;28;20173;-55
2021/07/29 02:56:57;;;;;;;5.10;3.72;;;;;;;;;;2071066;28;20641;-57
2021/07/29 02:57:58;;;;;;;4.10;3.70;;;;;;;;;;2071561;28;20176;-58
2021/07/29 02:58:58;;;;;;;3.85;3.45;;;;;;;;;;2071534;28;20604;-56
2021/07/29 02:59:58;;;;;;;4.10;3.70;;;;;;;;;;2072906;28;20290;-58
2021/07/29 03:00:59;;;;;;;3.60;3.40;;;;;;;;;;2070244;28;20178;-58
2021/07/29 03:01:59;;;;;;;3.85;3.22;;;;;;;;;;2071099;28;20208;-53
2021/07/29 03:02:59;;;;;;;3.63;3.33;;;;;;;;;;2071570;28;20193;-56
2021/07/29 03:04:00;;;;;;;5.57;3.63;;;;;;;;;;2070462;28;20224;-56
2021/07/29 03:05:00;;;;;;;4.35;3.70;;;;;;;;;;2072530;28;20172;-52
2021/07/29 03:06:01;;;;;;;5.50;3.80;;;;;;;;;;2071166;28;20203;-55
2021/07/29 03:07:01;;;;;;;4.20;3.75;;;;;;;;;;2071111;28;20173;-58
2021/07/29 03:08:01;;;;;;;3.83;3.42;;;;;;;;;;2071789;28;20180;-56
2021/07/29 03:09:02;;;;;;;5.15;3.50;;;;;;;;;;2072020;28;20172;-58
2021/07/29 03:10:03;;;;;;;4.13;3.80;;;;;;;;;;2071836;28;20227;-51
2021/07/29 03:11:03;;;;;;;3.90;3.33;;;;;;;;;;2069107;28;20189;-52
2021/07/29 03:12:04;;;;;;;3.63;3.10;;;;;;;;;;2072365;28;20636;-58
2021/07/29 03:13:04;;;;;;;3.58;3.28;;;;;;;;;;2071313;28;20230;-54
2021/07/29 03:14:04;;;;;;;4.13;3.22;;;;;;;;;;2071660;28;20203;-55
2021/07/29 03:15:05;;;;;;;3.83;3.40;;;;;;;;;;2072299;28;20243;-57
2021/07/29 03:16:05;;;;;;;3.83;3.40;;;;;;;;;;2072310;28;20180;-55
2021/07/29 03:17:06;;;;;;;5.07;3.80;;;;;;;;;;2071363;28;20197;-56
2021/07/29 03:18:06;;;;;;;5.25;3.60;;;;;;;;;;2071345;28;20611;-59
2021/07/29 03:19:06;;;;;;;4.20;3.55;;;;;;;;;;2071546;28;20661;-51
2021/07/29 03:20:07;;;;;;;3.67;3.40;;;;;;;;;;2063209;28;20228;-54
2021/07/29 03:21:08;;;;;;;4.30;3.33;;;;;;;;;;2063142;28;20186;-58
2021/07/29 03:22:08;;;;;;;5.35;3.20;;;;;;;;;;2071305;28;20256;-58
2021/07/29 03:23:09;;;;;;;4.40;3.53;;;;;;;;;;2063514;28;20209;-57
2021/07/29 03:24:09;;;;;;;3.83;3.53;;;;;;;;;;2075275;28;20173;-56
2021/07/29 03:25:09;;;;;;;3.25;3.05;;;;;;;;;;2075137;28;20193;-57
2021/07/29 03:26:09;;;;;;;4.57;3.65;;;;;;;;;;2074094;28;20170;-55
2021/07/29 03:27:10;;;;;;;3.33;3.03;;;;;;;;;;2077407;28;20212;-59
2021/07/29 03:28:10;;;;;;;4.68;3.50;;;;;;;;;;2075582;28;20580;-57
2021/07/29 03:29:10;;;;;;;5.28;4.18;;;;;;;;;;2077874;28;20608;-57
2021/07/29 03:30:11;;;;;;;4.55;3.05;;;;;;;;;;2072416;28;20287;-54
2021/07/29 03:31:11;;;;;;;3.92;3.50;;;;;;;;;;2078202;28;20173;-55
2021/07/29 03:32:11;;;;;;;3.92;3.60;;;;;;;;;;2074553;28;20255;-57
2021/07/29 03:33:12;;;;;;;3.50;3.20;;;;;;;;;;2080846;28;20192;-57
2021/07/29 03:34:12;;;;;;;3.95;2.97;;;;;;;;;;2075237;28;20177;-58
2021/07/29 03:35:12;;;;;;;3.13;2.83;;;;;;;;;;2079727;28;20192;-57
2021/07/29 03:36:12;;;;;;;5.55;3.65;;;;;;;;;;2076367;28;20181;-59
2021/07/29 03:37:13;;;;;;;3.97;3.47;;;;;;;;;;2074786;28;20227;-57
2021/07/29 03:38:13;;;;;;;7.57;3.33;;;;;;;;;;2071073;28;20188;-55
2021/07/29 03:39:14;;;;;;;5.72;3.63;;;;;;;;;;2077482;28;20646;-55
2021/07/29 03:40:14;;;;;;;3.80;3.38;;;;;;;;;;2077939;28;20203;-55
2021/07/29 03:41:14;;;;;;;5.05;3.35;;;;;;;;;;2077682;28;20168;-54
2021/07/29 03:42:15;;;;;;;8.18;3.70;;;;;;;;;;2078903;28;20266;-54
2021/07/29 03:43:15;;;;;;;6.65;3.60;;;;;;;;;;2075850;28;20217;-56
2021/07/29 03:44:15;;;;;;;4.53;3.35;;;;;;;;;;2078085;28;20181;-57
2021/07/29 03:45:15;;;;;;;3.83;3.45;;;;;;;;;;2076417;28;20172;-59
2021/07/29 03:46:16;;;;;;;6.13;3.30;;;;;;;;;;2076181;28;20189;-58
2021/07/29 03:47:16;;;;;;;3.75;3.20;;;;;;;;;;2076758;28;20220;-55
2021/07/29 03:48:18;;;;;;;6.20;3.78;;;;;;;;;;2078626;28;20192;-54
2021/07/29 03:49:18;;;;;;;4.07;3.67;;;;;;;;;;2077346;28;20544;-56
2021/07/29 03:50:19;;;;;;;3.50;3.20;;;;;;;;;;2079013;28;20199;-56
2021/07/29 03:51:19;;;;;;;4.00;3.55;;;;;;;;;;2076575;28;20166;-53
2021/07/29 03:52:19;;;;;;;4.72;3.28;;;;;;;;;;2077861;28;20691;-54
2021/07/29 03:53:19;;;;;;;4.20;3.20;;;;;;;;;;2076261;28;20185;-56
2021/07/29 03:54:20;;;;;;;4.10;3.70;;;;;;;;;;2078327;28;20211;-55
2021/07/29 03:55:20;;;;;;;3.85;3.42;;;;;;;;;;2077259;28;20181;-56
2021/07/29 03:56:20;;;;;;;3.45;3.25;;;;;;;;;;2077003;28;20169;-57
2021/07/29 03:57:23;;;;;;;4.57;3.70;;;;;;;;;;2078021;28;20169;-59
2021/07/29 03:58:23;;;;;;;4.65;3.80;;;;;;;;;;2077003;28;20204;-57
2021/07/29 03:59:24;;;;;;;3.42;3.17;;;;;;;;;;2075691;28;20646;-58
2021/07/29 04:00:24;;;;;;;4.78;3.70;;;;;;;;;;2078462;28;20268;-55
2021/07/29 04:01:24;;;;;;;6.15;3.53;;;;;;;;;;2076275;28;20215;-57
2021/07/29 04:02:24;;;;;;;3.63;3.33;;;;;;;;;;2074269;28;20177;-53
2021/07/29 04:03:24;;;;;;;5.13;3.40;;;;;;;;;;2075686;28;20205;-58
2021/07/29 04:04:25;;;;;;;4.10;3.60;;;;;;;;;;2075162;28;20165;-58
2021/07/29 04:05:25;;;;;;;4.28;3.20;;;;;;;;;;2077304;28;20180;-58
2021/07/29 04:06:25;;;;;;;4.13;3.22;;;;;;;;;;2077218;28;20279;-59
2021/07/29 04:07:26;;;;;;;6.90;3.75;;;;;;;;;;2076387;28;20585;-55
2021/07/29 04:08:26;;;;;;;4.57;3.38;;;;;;;;;;2076745;28;20231;-57
2021/07/29 04:09:26;;;;;;;4.72;3.58;;;;;;;;;;2076432;28;20676;-59
2021/07/29 04:10:26;;;;;;;5.10;3.83;;;;;;;;;;2076952;28;20168;-57
2021/07/29 04:11:27;;;;;;;3.63;3.25;;;;;;;;;;2072996;28;20184;-57
2021/07/29 04:12:27;;;;;;;4.70;3.25;;;;;;;;;;2075569;28;20620;-55
2021/07/29 04:13:27;;;;;;;5.15;3.60;;;;;;;;;;2075123;28;20256;-58
2021/07/29 04:14:28;;;;;;;6.20;4.20;;;;;;;;;;2076739;28;20180;-59
2021/07/29 04:15:28;;;;;;;6.43;3.40;;;;;;;;;;2076803;28;20212;-56
2021/07/29 04:16:28;;;;;;;8.63;3.88;;;;;;;;;;2068977;28;20240;-59
2021/07/29 04:17:28;;;;;;;4.43;3.70;;;;;;;;;;2076979;28;20249;-56
2021/07/29 04:18:31;;;;;;;5.38;3.67;;;;;;;;;;2075323;28;20260;-57
2021/07/29 04:19:33;;;;;;;6.97;3.70;;;;;;;;;;2077064;28;20184;-59
2021/07/29 04:20:33;;;;;;;4.43;4.03;;;;;;;;;;2077388;28;20163;-59
2021/07/29 04:21:33;;;;;;;4.18;3.88;;;;;;;;;;2075554;28;20214;-59
2021/07/29 04:22:34;;;;;;;4.45;3.40;;;;;;;;;;2076161;28;20177;-55
2021/07/29 04:23:34;;;;;;;4.10;3.72;;;;;;;;;;2076298;28;20584;-56
2021/07/29 04:24:34;;;;;;;5.22;3.67;;;;;;;;;;2074791;28;20657;-57
2021/07/29 04:25:34;;;;;;;4.05;3.75;;;;;;;;;;2075972;28;20169;-55
2021/07/29 04:26:35;;;;;;;5.07;3.75;;;;;;;;;;2075527;28;20183;-57
2021/07/29 04:27:35;;;;;;;5.03;3.72;;;;;;;;;;2076085;28;20176;-59
2021/07/29 04:28:35;;;;;;;6.32;3.85;;;;;;;;;;2068067;28;20209;-59
2021/07/29 04:29:35;;;;;;;6.97;4.32;;;;;;;;;;2067143;28;20170;-58
2021/07/29 04:30:36;;;;;;;5.65;3.88;;;;;;;;;;2075001;28;20177;-57
2021/07/29 04:31:36;;;;;;;5.32;3.95;;;;;;;;;;2076608;28;20541;-55
2021/07/29 04:32:36;;;;;;;5.35;3.20;;;;;;;;;;2076962;28;20715;-60
2021/07/29 04:33:37;;;;;;;4.40;3.92;;;;;;;;;;2076874;28;20208;-52
2021/07/29 04:34:38;;;;;;;4.55;3.78;;;;;;;;;;2077086;28;20173;-53
2021/07/29 04:35:39;;;;;;;4.15;3.72;;;;;;;;;;2078650;28;20246;-59
2021/07/29 04:36:40;;;;;;;5.53;3.88;;;;;;;;;;2076603;28;20627;-58
2021/07/29 04:37:40;;;;;;;4.40;4.00;;;;;;;;;;2077865;28;20188;-53
2021/07/29 04:38:40;;;;;;;6.60;4.05;;;;;;;;;;2077539;28;20767;-57
2021/07/29 04:39:42;;;;;;;6.68;4.10;;;;;;;;;;2077564;28;20180;-56
2021/07/29 04:40:42;;;;;;;4.30;3.90;;;;;;;;;;2076921;28;20612;-58
2021/07/29 04:41:43;;;;;;;6.68;3.95;;;;;;;;;;2076679;28;20181;-57
2021/07/29 04:42:43;;;;;;;5.07;4.15;;;;;;;;;;2077114;28;20230;-57
2021/07/29 04:43:43;;;;;;;4.07;3.78;;;;;;;;;;2076856;28;20196;-57
2021/07/29 04:44:44;;;;;;;4.28;3.88;;;;;;;;;;2077896;28;20177;-58
2021/07/29 04:45:44;;;;;;;7.28;4.15;;;;;;;;;;2074891;28;20197;-56
2021/07/29 04:46:44;;;;;;;6.05;3.70;;;;;;;;;;2073917;28;20181;-58
2021/07/29 04:47:44;;;;;;;7.13;3.85;;;;;;;;;;2073840;28;20169;-54
2021/07/29 04:48:45;;;;;;;5.75;4.32;;;;;;;;;;2073727;28;20176;-56
2021/07/29 04:49:45;;;;;;;9.30;3.80;;;;;;;;;;2074399;28;20184;-58
2021/07/29 04:50:45;;;;;;;4.28;3.60;;;;;;;;;;2076131;28;20645;-57
2021/07/29 04:51:47;;;;;;;5.68;3.47;;;;;;;;;;2077480;28;20173;-58
2021/07/29 04:52:50;;;;;;;3.85;3.50;;;;;;;;;;2077410;28;20219;-57
2021/07/29 04:53:50;;;;;;;6.20;3.92;;;;;;;;;;2076832;28;20225;-58
2021/07/29 04:54:50;;;;;;;6.13;4.07;;;;;;;;;;2075350;28;20177;-56
2021/07/29 04:55:51;;;;;;;8.13;4.10;;;;;;;;;;2073022;28;20229;-57
2021/07/29 04:56:51;;;;;;;7.72;4.20;;;;;;;;;;2074502;28;20255;-55
2021/07/29 04:57:51;;;;;;;7.75;4.18;;;;;;;;;;2076656;28;20204;-58
2021/07/29 04:58:51;;;;;;;6.72;4.28;;;;;;;;;;2075144;28;20165;-56
2021/07/29 04:59:52;;;;;;;6.10;3.92;;;;;;;;;;2075803;28;20169;-56
2021/07/29 05:00:52;;;;;;;6.38;3.85;;;;;;;;;;2073225;28;20223;-59
2021/07/29 05:01:52;;;;;;;7.25;4.05;;;;;;;;;;2074726;28;20273;-59
2021/07/29 05:02:52;;;;;;;6.40;4.15;;;;;;;;;;2077056;28;20641;-60
2021/07/29 05:03:53;;;;;;;4.80;3.97;;;;;;;;;;2066629;28;21682;-56
2021/07/29 05:04:53;;;;;;;4.97;3.75;;;;;;;;;;2077152;28;20242;-59
2021/07/29 05:05:53;;;;;;;4.00;3.65;;;;;;;;;;2074954;28;20633;-54
2021/07/29 05:06:53;;;;;;;5.80;3.90;;;;;;;;;;2077502;28;20202;-58
2021/07/29 05:07:54;;;;;;;4.85;3.70;;;;;;;;;;2074422;28;20226;-55
2021/07/29 05:08:54;;;;;;;4.70;3.60;;;;;;;;;;2076190;28;20187;-59
2021/07/29 05:09:54;;;;;;;6.72;4.25;;;;;;;;;;2076446;28;20168;-58
2021/07/29 05:10:54;;;;;;;4.07;3.67;;;;;;;;;;2074541;28;20553;-58
2021/07/29 05:11:55;;;;;;;4.20;3.70;;;;;;;;;;2075089;28;20188;-55
2021/07/29 05:12:55;;;;;;;6.28;3.75;;;;;;;;;;2073639;28;20215;-60
2021/07/29 05:13:55;;;;;;;4.35;3.90;;;;;;;;;;2071741;28;20272;-57
2021/07/29 05:14:56;;;;;;;5.30;4.30;;;;;;;;;;2073742;28;20881;-54
2021/07/29 05:15:57;;;;;;;5.65;3.90;;;;;;;;;;2073773;28;20644;-56
2021/07/29 05:17:01;;;;;;;4.20;3.45;;;;;;;;;;2075193;28;20169;-57
2021/07/29 05:18:01;;;;;;;5.45;3.80;;;;;;;;;;2076259;28;20181;-56
2021/07/29 05:19:02;;;;;;;5.72;3.70;;;;;;;;;;2075444;28;20208;-62
2021/07/29 05:20:02;;;;;;;4.35;3.55;;;;;;;;;;2074994;28;20267;-54
2021/07/29 05:21:03;;;;;;;4.30;3.72;;;;;;;;;;2074977;28;20172;-53
2021/07/29 05:22:04;;;;;;;5.38;3.50;;;;;;;;;;2075875;28;20185;-59
2021/07/29 05:23:04;;;;;;;4.53;4.13;;;;;;;;;;2075546;28;20250;-53
2021/07/29 05:24:05;;;;;;;5.50;3.45;;;;;;;;;;2077039;28;20260;-57
2021/07/29 05:25:05;;;;;;;6.45;3.45;;;;;;;;;;2076621;28;20255;-57
2021/07/29 05:26:05;;;;;;;4.75;3.85;;;;;;;;;;2074960;28;20196;-57
2021/07/29 05:27:06;;;;;;;3.70;3.40;;;;;;;;;;2074289;28;20177;-59
2021/07/29 05:28:06;;;;;;;5.30;3.42;;;;;;;;;;2064941;28;20261;-62
2021/07/29 05:29:07;;;;;;;8.05;4.10;;;;;;;;;;2066381;28;20264;-63
2021/07/29 05:30:07;;;;;;;5.18;3.47;;;;;;;;;;2069006;28;20704;-63
2021/07/29 05:31:08;;;;;;;4.43;3.50;;;;;;;;;;2076211;28;20165;-57
2021/07/29 05:32:08;;;;;;;3.97;3.30;;;;;;;;;;2071570;28;20553;-57
2021/07/29 05:33:09;;;;;;;5.50;3.70;;;;;;;;;;2077060;28;20224;-56
2021/07/29 05:34:10;;;;;;;4.20;3.40;;;;;;;;;;2076013;28;20709;-57
2021/07/29 05:35:11;;;;;;;4.82;3.55;;;;;;;;;;2074815;28;20173;-56
2021/07/29 05:36:11;;;;;;;4.45;3.60;;;;;;;;;;2078415;28;20593;-57
2021/07/29 05:37:11;;;;;;;3.95;3.55;;;;;;;;;;2076324;28;20180;-56
2021/07/29 05:38:12;;;;;;;7.53;4.10;;;;;;;;;;2075766;28;20196;-57
2021/07/29 05:39:12;;;;;;;4.53;3.58;;;;;;;;;;2075725;28;20203;-58
2021/07/29 05:40:12;;;;;;;5.88;3.65;;;;;;;;;;2073156;28;20260;-57
2021/07/29 05:41:12;;;;;;;4.45;3.38;;;;;;;;;;2073040;28;20251;-57
2021/07/29 05:42:19;;;;;;;4.68;3.67;;;;;;;;;;2065804;28;20320;-59
2021/07/29 05:43:19;;;;;;;5.50;3.65;;;;;;;;;;2071772;28;20209;-59
2021/07/29 05:44:20;;;;;;;6.10;4.20;;;;;;;;;;2073012;28;20178;-55
2021/07/29 05:45:20;;;;;;;6.03;3.85;;;;;;;;;;2074803;28;20212;-54
2021/07/29 05:46:22;;;;;;;4.70;3.53;;;;;;;;;;2075229;28;20231;-54
2021/07/29 05:47:22;;;;;;;6.72;3.88;;;;;;;;;;2076920;28;20251;-59
2021/07/29 05:48:22;;;;;;;5.63;3.80;;;;;;;;;;2064887;28;20244;-58
2021/07/29 05:49:22;;;;;;;5.93;4.03;;;;;;;;;;2065777;28;20181;-57
2021/07/29 05:50:23;;;;;;;5.88;3.90;;;;;;;;;;2071782;28;20172;-54
2021/07/29 05:51:23;;;;;;;5.47;4.10;;;;;;;;;;2075961;28;20723;-59
2021/07/29 05:52:23;;;;;;;12.30;3.70;;;;;;;;;;2074342;28;20176;-58
2021/07/29 05:53:24;;;;;;;5.10;3.33;;;;;;;;;;2072265;28;20239;-58
2021/07/29 05:54:24;;;;;;;6.47;3.63;;;;;;;;;;2070424;28;20209;-58
2021/07/29 05:55:25;;;;;;;5.45;4.00;;;;;;;;;;2072189;28;20192;-57
2021/07/29 05:56:25;;;;;;;5.68;3.88;;;;;;;;;;2072444;28;20181;-57
2021/07/29 05:57:25;;;;;;;5.72;4.00;;;;;;;;;;2072870;28;20185;-54
2021/07/29 05:58:26;;;;;;;4.93;3.90;;;;;;;;;;2071926;28;20172;-52
2021/07/29 05:59:26;;;;;;;5.47;3.40;;;;;;;;;;2072085;28;20200;-56
2021/07/29 06:00:27;;;;;;;7.45;3.65;;;;;;;;;;2072227;28;20169;-56
2021/07/29 06:01:27;;;;;;;6.22;3.70;;;;;;;;;;2064216;28;20178;-54
2021/07/29 06:02:27;;;;;;;5.65;3.80;;;;;;;;;;2063889;28;20647;-53
2021/07/29 06:03:27;;;;;;;6.13;3.83;;;;;;;;;;2069910;28;20243;-48